< < Back
Terminal Aerodrome Forecast


Current Version              Previous Versions:   1  2  3  4  5  6  7  8  9  

Terminal Aerodrome Forecast

036
FTUS42 KTAE 231700
TAFABY
TAF
KABY 231720Z 2318/2418 VRB03KT P6SM SKC
     FM240000 00000KT P6SM SKC=



Latest METAR

582
SAUS70 KWBC 242100 RRH
MTRABY
METAR KABY 242053Z 29004KT 10SM CLR 24/08 A3000 RMK AO2 SLP156 T02440078
56013


USA.gov is the U.S. government's official web portal to all federal, state and local government web resources and services.